Time;durP1;ratioP1;P1;durP2;ratioP2;P2;SDS_P1;SDS_P2;PMS_P1;PMS_P2;Temp;Humidity;BMP_temperature;BMP_pressure;BME280_temperature;BME280_humidity;BME280_pressure;Samples;Min_cycle;Max_cycle;Signal;HPM_P1;HPM_P2
2023/11/19 04:06:02;;;;;;;3.72;2.30;;;;;;;10.18;66.54;95071.03;6134046;23;20065;-86
2023/11/19 04:58:25;;;;;;;2.50;2.03;;;;;;;11.77;65.93;95116.50;6129375;23;20029;-85
2023/11/19 05:00:50;;;;;;;1.80;1.60;;;;;;;11.86;65.53;95115.34;6096614;23;20030;-86
2023/11/19 05:11:36;;;;;;;3.13;1.80;;;;;;;12.11;65.60;95132.25;6115718;23;20054;-85
2023/11/19 05:14:09;;;;;;;3.63;2.03;;;;;;;12.13;65.52;95129.44;6044304;23;20014;-85
2023/11/19 05:16:35;;;;;;;2.78;1.98;;;;;;;12.24;65.05;95117.66;6045171;23;20035;-86
2023/11/19 05:42:17;;;;;;;8.77;5.97;;;;;;;12.31;67.31;95139.41;6097929;23;20046;-85
2023/11/19 05:47:10;;;;;;;8.48;4.95;;;;;;;12.31;67.54;95148.00;6132972;23;20034;-84
2023/11/19 05:49:38;;;;;;;4.28;3.58;;;;;;;12.31;67.36;95149.81;6098527;23;20009;-85
2023/11/19 05:52:07;;;;;;;4.90;4.15;;;;;;;12.58;66.40;95161.25;6097877;23;20021;-85
2023/11/19 06:00:52;;;;;;;2.88;2.00;;;;;;;12.36;67.34;95152.69;6099884;23;20018;-85
2023/11/19 06:03:18;;;;;;;3.30;2.00;;;;;;;12.26;67.93;95157.41;6127379;23;20100;-86
2023/11/19 06:05:47;;;;;;;4.00;2.10;;;;;;;12.55;67.04;95158.22;6127814;23;20008;-85
2023/11/19 06:08:14;;;;;;;2.17;1.77;;;;;;;12.38;67.47;95145.47;6127040;23;20013;-86
2023/11/19 06:10:41;;;;;;;2.25;1.80;;;;;;;12.55;67.00;95153.00;6103792;23;20072;-86
2023/11/19 06:13:06;;;;;;;2.08;1.77;;;;;;;12.43;67.51;95156.16;6127597;23;20009;-85
2023/11/19 06:15:33;;;;;;;3.65;1.45;;;;;;;12.67;66.39;95151.47;6127924;23;20052;-85
2023/11/19 06:20:27;;;;;;;5.22;2.90;;;;;;;12.87;66.05;95155.00;6132563;23;20109;-84
2023/11/19 06:22:53;;;;;;;2.33;1.80;;;;;;;12.90;65.73;95144.16;6098594;23;20013;-85
2023/11/19 06:25:21;;;;;;;1.85;1.67;;;;;;;12.83;65.84;95143.34;6073895;23;20018;-86
2023/11/19 06:27:46;;;;;;;3.72;3.40;;;;;;;13.05;65.54;95157.09;6074534;23;20016;-84
2023/11/19 06:30:12;;;;;;;7.35;6.75;;;;;;;13.18;64.88;95145.88;6097799;23;20014;-85
2023/11/19 06:32:38;;;;;;;2.55;1.88;;;;;;;12.89;65.87;95145.16;6098585;23;20012;-85
2023/11/19 06:35:07;;;;;;;3.13;2.83;;;;;;;13.05;65.57;95145.84;6098228;23;20069;-85
2023/11/19 06:37:32;;;;;;;2.80;2.35;;;;;;;13.21;64.93;95155.13;6074532;23;20009;-84
2023/11/19 07:05:46;;;;;;;2.30;2.03;;;;;;;13.35;64.39;95140.38;6111441;23;20033;-84
2023/11/19 07:08:11;;;;;;;3.38;2.75;;;;;;;13.28;64.75;95145.53;6121843;23;20002;-85
2023/11/19 09:23:36;;;;;;;3.50;2.30;;;;;;;13.87;65.65;95191.13;6123619;23;20041;-85
2023/11/19 09:26:01;;;;;;;3.00;2.25;;;;;;;14.07;64.75;95178.91;6145698;23;20021;-85
2023/11/19 09:28:27;;;;;;;5.88;4.75;;;;;;;14.22;64.43;95178.72;6147176;23;20017;-85
2023/11/19 09:30:52;;;;;;;5.40;4.32;;;;;;;14.02;65.56;95178.69;6122982;23;20013;-84
2023/11/19 09:33:19;;;;;;;5.57;3.20;;;;;;;14.22;65.17;95188.34;6147595;23;20006;-85
2023/11/19 09:35:45;;;;;;;4.40;2.13;;;;;;;14.36;64.20;95189.97;6124016;23;20017;-85
2023/11/19 09:38:13;;;;;;;2.45;2.20;;;;;;;14.34;64.33;95196.44;6123787;23;20010;-85
2023/11/19 09:45:52;;;;;;;2.05;1.85;;;;;;;14.41;63.64;95191.97;6124128;23;20111;-84
2023/11/19 09:48:19;;;;;;;2.40;1.80;;;;;;;14.38;63.75;95187.16;6097769;23;20010;-84
2023/11/19 09:53:20;;;;;;;3.42;3.03;;;;;;;14.66;63.81;95187.78;6100076;23;20025;-85
2023/11/19 09:55:46;;;;;;;4.30;3.03;;;;;;;14.76;63.52;95182.13;6122883;23;20014;-85
2023/11/19 09:58:15;;;;;;;3.20;2.90;;;;;;;14.71;64.03;95181.91;6122805;23;20016;-85
2023/11/19 10:00:41;;;;;;;308.77;12.27;;;;;;;14.63;63.90;95169.03;6147416;23;20010;-84
2023/11/19 10:08:17;;;;;;;50.00;6.18;;;;;;;14.15;65.29;95166.63;6126585;23;20014;-85
2023/11/19 10:10:43;;;;;;;489.02;16.20;;;;;;;14.17;65.01;95172.47;6098132;23;20032;-85
2023/11/19 10:13:09;;;;;;;4.80;4.07;;;;;;;14.38;64.59;95153.16;6074224;23;20018;-85
2023/11/19 10:15:37;;;;;;;60.28;7.22;;;;;;;14.37;64.39;95152.31;6073585;23;20044;-85
2023/11/19 10:18:06;;;;;;;7.93;5.50;;;;;;;14.46;64.46;95153.72;6097841;23;20005;-85
2023/11/19 10:20:40;;;;;;;5.57;4.90;;;;;;;14.47;65.17;95157.97;6098124;23;20013;-84
2023/11/19 10:28:16;;;;;;;4.28;2.78;;;;;;;15.12;63.21;95152.00;6126663;23;20006;-85
2023/11/19 10:30:46;;;;;;;4.72;2.85;;;;;;;15.20;62.37;95135.25;6098654;23;20052;-85
2023/11/19 10:33:20;;;;;;;4.68;3.20;;;;;;;15.22;62.82;95144.50;6073982;23;20006;-86
2023/11/19 10:35:53;;;;;;;3.05;2.63;;;;;;;14.88;63.54;95150.88;6075052;23;20034;-85
2023/11/19 10:38:19;;;;;;;16.25;4.40;;;;;;;15.15;63.34;95156.81;6097977;23;20065;-84
2023/11/19 10:40:50;;;;;;;164.02;8.88;;;;;;;14.94;62.83;95155.28;6097247;23;20010;-85
2023/11/19 10:43:17;;;;;;;434.45;13.65;;;;;;;14.83;62.36;95163.75;6096986;23;20018;-83
2023/11/19 10:45:43;;;;;;;323.60;12.68;;;;;;;14.48;62.70;95162.19;6097563;23;20045;-85
2023/11/19 10:48:08;;;;;;;314.00;12.02;;;;;;;14.35;62.24;95156.94;6096654;23;20017;-85
2023/11/19 10:55:38;;;;;;;314.38;10.73;;;;;;;13.77;62.59;95151.50;6123682;23;20018;-84
2023/11/19 10:58:05;;;;;;;234.52;9.75;;;;;;;13.75;62.14;95154.31;6097474;23;20009;-84
2023/11/19 11:00:40;;;;;;;82.00;7.32;;;;;;;13.56;62.43;95150.66;6098178;23;20013;-84
2023/11/19 11:03:13;;;;;;;36.95;5.18;;;;;;;13.20;63.13;95151.72;6097552;23;20002;-84
2023/11/19 11:05:40;;;;;;;29.25;5.97;;;;;;;12.04;68.01;95131.38;6097356;23;20036;-84
2023/11/19 11:08:06;;;;;;;23.08;5.28;;;;;;;12.48;66.83;95152.94;6096678;23;20006;-84
2023/11/19 11:10:41;;;;;;;5.15;4.63;;;;;;;12.89;65.56;95141.75;6096391;23;20239;-84
2023/11/19 11:13:07;;;;;;;4.72;4.13;;;;;;;13.27;64.90;95144.72;6097493;23;20006;-84
2023/11/19 11:15:34;;;;;;;5.07;4.57;;;;;;;13.20;65.70;95146.50;6097763;23;20006;-83
2023/11/19 11:18:01;;;;;;;6.05;4.47;;;;;;;13.32;65.69;95154.59;6097462;23;20014;-84
2023/11/19 11:23:23;;;;;;;6.00;4.88;;;;;;;13.54;65.74;95139.59;6109982;23;20026;-84
2023/11/19 11:26:14;;;;;;;6.70;5.68;;;;;;;13.67;65.72;95144.06;6145092;23;20017;-85
2023/11/19 11:28:45;;;;;;;10.80;4.88;;;;;;;13.74;65.33;95149.28;6146461;23;20076;-84
2023/11/19 11:31:38;;;;;;;5.65;4.35;;;;;;;13.76;65.47;95147.28;6146206;23;20037;-84
2023/11/19 11:42:17;;;;;;;5.20;4.70;;;;;;;13.39;66.14;95144.19;6122750;23;20017;-85
2023/11/19 11:45:00;;;;;;;5.22;3.40;;;;;;;13.16;66.77;95149.72;6096945;23;20020;-85
2023/11/19 11:47:46;;;;;;;4.50;3.80;;;;;;;13.52;66.47;95141.59;6096424;23;20047;-85
2023/11/19 11:50:14;;;;;;;4.10;3.30;;;;;;;13.74;66.00;95123.16;6096727;23;20044;-85
2023/11/19 11:52:58;;;;;;;3.08;2.80;;;;;;;14.16;64.84;95131.63;6096834;23;20005;-86
2023/11/19 11:55:58;;;;;;;3.85;3.47;;;;;;;14.05;65.16;95114.69;6097914;23;20010;-85
2023/11/19 11:58:33;;;;;;;3.30;2.90;;;;;;;13.89;66.05;95129.00;6096738;23;20101;-85
2023/11/19 12:01:01;;;;;;;3.78;2.90;;;;;;;14.05;65.62;95115.53;6096638;23;20005;-84
2023/11/19 12:03:28;;;;;;;4.28;3.25;;;;;;;14.03;65.93;95121.94;6096829;23;20009;-86
2023/11/19 12:08:25;;;;;;;3.50;3.20;;;;;;;14.06;66.81;95126.78;6131907;23;20028;-85
2023/11/19 12:10:57;;;;;;;3.58;3.28;;;;;;;14.10;66.49;95116.72;6150091;23;20005;-85
2023/11/19 12:13:24;;;;;;;3.47;3.08;;;;;;;14.22;66.28;95110.69;6103040;23;20037;-85
2023/11/19 12:15:58;;;;;;;2.90;2.63;;;;;;;14.60;65.75;95107.44;6126073;23;20006;-85
2023/11/19 12:18:27;;;;;;;4.47;2.60;;;;;;;14.89;64.72;95107.16;6125170;23;20009;-85
2023/11/19 12:25:53;;;;;;;3.22;2.70;;;;;;;14.86;65.88;95096.06;6130890;23;20017;-85
2023/11/19 12:35:55;;;;;;;2.30;2.10;;;;;;;15.18;63.97;95072.56;6124383;23;20018;-85
2023/11/19 12:38:25;;;;;;;3.00;2.20;;;;;;;15.20;63.86;95077.59;6096753;23;20064;-86
2023/11/19 14:53:15;;;;;;;3.85;2.20;;;;;;;15.92;61.69;95038.84;6135312;23;20022;-86
2023/11/19 14:55:40;;;;;;;4.35;3.33;;;;;;;15.78;62.21;95035.53;6098297;23;20021;-86
2023/11/19 14:58:07;;;;;;;10.95;8.10;;;;;;;15.72;62.45;95038.16;6097332;23;20013;-86
2023/11/19 15:18:20;;;;;;;3.95;2.97;;;;;;;15.76;62.31;95036.75;6150577;23;20018;-85
2023/11/19 15:20:47;;;;;;;3.25;2.95;;;;;;;15.85;61.89;95043.31;6175838;23;20010;-84
2023/11/19 15:23:15;;;;;;;3.33;2.65;;;;;;;15.85;61.80;95035.47;6150303;23;20009;-85
2023/11/19 15:25:42;;;;;;;3.30;2.33;;;;;;;15.50;63.05;95027.22;6151032;23;20019;-85
2023/11/19 15:28:07;;;;;;;2.63;2.42;;;;;;;15.61;62.46;95027.34;6151257;23;20015;-84
2023/11/19 15:30:36;;;;;;;2.70;2.50;;;;;;;15.49;62.44;95031.66;6151644;23;20009;-84
2023/11/19 15:33:01;;;;;;;3.85;2.90;;;;;;;15.35;63.04;95025.72;6150940;23;20036;-85
2023/11/19 15:35:27;;;;;;;3.72;3.28;;;;;;;15.34;63.44;95044.25;6151208;23;20017;-85
2023/11/19 15:40:19;;;;;;;6.03;5.43;;;;;;;15.25;63.50;95047.16;6120694;23;20045;-85
2023/11/19 15:42:47;;;;;;;6.93;6.22;;;;;;;15.22;63.73;95044.13;6097127;23;20033;-85
2023/11/19 15:45:13;;;;;;;3.97;3.67;;;;;;;15.19;63.60;95032.28;6097133;23;20006;-85
2023/11/19 15:47:41;;;;;;;6.70;4.72;;;;;;;14.72;65.53;95041.38;6072900;23;20010;-84
2023/11/19 15:50:09;;;;;;;9.60;6.18;;;;;;;14.83;64.83;95027.59;6072926;23;20065;-85
2023/11/19 15:52:35;;;;;;;7.45;5.03;;;;;;;14.73;64.73;95017.56;6096948;23;20046;-85
2023/11/19 15:57:26;;;;;;;3.55;3.05;;;;;;;14.57;65.88;95029.31;6120838;23;20121;-85
2023/11/19 15:59:52;;;;;;;2.85;2.50;;;;;;;14.97;64.43;95025.75;6097228;23;20041;-84
2023/11/19 16:09:53;;;;;;;2.72;2.00;;;;;;;14.80;65.18;95022.81;6096776;23;20033;-85
2023/11/19 16:12:22;;;;;;;2.03;1.80;;;;;;;15.02;64.32;95016.25;6121587;23;20017;-84
2023/11/19 16:14:47;;;;;;;2.03;1.65;;;;;;;15.25;63.61;95025.38;6101992;23;20005;-85
2023/11/19 16:17:13;;;;;;;6.20;4.65;;;;;;;15.19;64.11;95026.22;6125698;23;20036;-86
2023/11/19 16:19:40;;;;;;;30.38;19.65;;;;;;;15.44;63.17;95007.94;6126160;23;20013;-85
2023/11/19 16:22:09;;;;;;;6.72;4.72;;;;;;;15.40;63.25;95006.72;6124940;23;20048;-85
2023/11/19 16:27:02;;;;;;;3.10;2.80;;;;;;;15.52;62.65;94997.19;6112277;23;20029;-84
2023/11/19 16:29:27;;;;;;;1.67;1.52;;;;;;;15.57;62.78;94999.97;6126444;23;20064;-85
2023/11/19 16:31:53;;;;;;;2.15;1.30;;;;;;;15.33;63.63;95006.00;6150658;23;20005;-85
2023/11/19 16:34:18;;;;;;;1.98;1.40;;;;;;;15.36;63.63;95013.41;6126208;23;20071;-85
2023/11/19 16:39:12;;;;;;;2.67;1.60;;;;;;;15.41;63.29;95016.22;6127034;23;20025;-87
2023/11/19 16:44:11;;;;;;;1.88;1.38;;;;;;;15.55;62.99;95015.06;6097587;23;20019;-84
2023/11/19 17:35:47;;;;;;;3.63;2.60;;;;;;;15.84;62.39;94981.41;6098211;23;20094;-86
2023/11/19 17:38:12;;;;;;;3.42;2.22;;;;;;;15.73;62.86;95014.38;6123009;23;20060;-85
2023/11/19 17:40:40;;;;;;;5.85;4.68;;;;;;;15.62;62.84;95038.63;6099176;23;20014;-84
2023/11/19 17:50:32;;;;;;;5.97;5.38;;;;;;;15.48;63.27;95068.56;6098601;23;20025;-85
2023/11/19 17:52:58;;;;;;;7.72;5.50;;;;;;;15.30;64.11;95064.84;6084783;23;20022;-84
2023/11/19 17:55:23;;;;;;;6.28;5.68;;;;;;;15.26;64.20;95047.94;6098246;23;20010;-84
2023/11/19 18:00:15;;;;;;;3.55;3.25;;;;;;;15.23;64.14;95061.44;6123951;23;20050;-84
2023/11/19 18:02:45;;;;;;;3.55;3.25;;;;;;;15.28;63.60;95058.22;6051602;23;20024;-84
2023/11/19 18:20:25;;;;;;;2.88;2.08;;;;;;;15.27;63.01;95062.66;6125583;23;20018;-84
2023/11/19 18:22:54;;;;;;;2.47;2.20;;;;;;;15.39;62.78;95063.59;6102344;23;20045;-84
2023/11/19 18:25:20;;;;;;;2.72;2.38;;;;;;;15.36;62.91;95063.19;6102123;23;20016;-84
2023/11/19 18:27:47;;;;;;;2.38;2.17;;;;;;;15.34;63.02;95065.22;6126526;23;20075;-84
2023/11/19 18:32:38;;;;;;;4.30;2.58;;;;;;;15.27;63.29;95078.38;6122019;23;20033;-85
2023/11/19 18:35:11;;;;;;;4.20;2.80;;;;;;;15.30;63.05;95067.47;6097698;23;20021;-85
2023/11/19 18:42:41;;;;;;;4.88;3.45;;;;;;;15.20;63.59;95075.00;6098147;23;20019;-84
2023/11/19 18:45:07;;;;;;;4.60;3.60;;;;;;;15.13;63.76;95075.00;6097961;23;20026;-85
2023/11/19 18:47:33;;;;;;;4.65;3.83;;;;;;;14.85;64.70;95068.28;6097081;23;20002;-85
2023/11/19 18:49:59;;;;;;;3.55;3.25;;;;;;;14.89;64.23;95054.78;6097001;23;20024;-84
2023/11/19 18:55:00;;;;;;;4.22;3.03;;;;;;;14.73;64.38;95067.31;6099028;23;20026;-84
2023/11/19 19:05:02;;;;;;;4.18;3.30;;;;;;;14.89;63.92;95062.63;6151955;23;20018;-84
2023/11/19 19:07:27;;;;;;;3.60;3.30;;;;;;;15.04;63.38;95050.06;6151076;23;20016;-84
2023/11/19 19:09:54;;;;;;;4.35;3.20;;;;;;;14.86;64.31;95056.00;6151329;23;20006;-84
2023/11/19 19:12:22;;;;;;;3.85;3.45;;;;;;;14.76;64.02;95048.59;6151495;23;20013;-84
2023/11/19 19:14:48;;;;;;;5.22;4.45;;;;;;;14.53;64.70;95049.03;6126660;23;20036;-85
2023/11/19 19:27:34;;;;;;;4.38;3.55;;;;;;;14.34;64.70;95053.31;6151830;23;20029;-85
2023/11/19 19:30:00;;;;;;;6.13;5.53;;;;;;;13.94;65.50;95039.50;6127249;23;20024;-85
2023/11/19 19:32:25;;;;;;;6.20;4.80;;;;;;;14.12;64.72;95051.94;6126507;23;20017;-84
2023/11/19 19:34:50;;;;;;;5.55;4.25;;;;;;;14.38;64.05;95057.13;6150404;23;20145;-85
2023/11/19 19:37:16;;;;;;;4.45;3.20;;;;;;;14.46;64.19;95062.13;6150303;23;20006;-84
2023/11/19 19:52:31;;;;;;;5.47;4.93;;;;;;;14.49;63.35;95050.47;6125220;23;20014;-85
2023/11/19 19:54:57;;;;;;;4.78;3.95;;;;;;;14.24;63.80;95052.91;6097135;23;20025;-84
2023/11/19 20:02:14;;;;;;;3.95;3.33;;;;;;;14.44;63.31;95056.31;6098108;23;20021;-86
2023/11/19 20:09:50;;;;;;;2.90;2.70;;;;;;;14.10;63.65;95046.13;6121894;23;20084;-85
2023/11/19 20:12:16;;;;;;;3.05;2.85;;;;;;;14.01;63.81;95050.75;6049163;23;20013;-85
2023/11/19 20:14:41;;;;;;;3.72;3.30;;;;;;;14.07;63.78;95068.25;6049112;23;20021;-85
2023/11/19 20:17:08;;;;;;;4.47;3.22;;;;;;;14.12;63.67;95067.63;6096743;23;20005;-84
2023/11/19 20:21:59;;;;;;;3.00;2.50;;;;;;;14.10;63.24;95061.81;6077806;23;20121;-85
2023/11/19 20:24:24;;;;;;;3.33;2.72;;;;;;;14.01;63.17;95071.66;6117929;23;20022;-85
2023/11/19 20:26:53;;;;;;;7.18;4.72;;;;;;;13.87;63.59;95063.81;6043745;23;20034;-86
2023/11/19 20:29:19;;;;;;;3.45;2.42;;;;;;;14.02;63.26;95076.69;6068006;23;20006;-85
2023/11/19 20:31:44;;;;;;;3.63;2.97;;;;;;;14.16;62.61;95076.69;6067364;23;20037;-86
2023/11/19 20:34:10;;;;;;;3.15;2.67;;;;;;;14.13;63.03;95075.28;6067873;23;20006;-85
2023/11/19 20:36:35;;;;;;;2.58;2.38;;;;;;;14.07;62.64;95079.53;6043107;23;20041;-85
2023/11/19 20:39:02;;;;;;;3.67;2.63;;;;;;;14.01;62.92;95075.09;6067605;23;20062;-85
2023/11/19 20:41:32;;;;;;;2.58;2.00;;;;;;;14.02;62.66;95073.28;6067707;23;20006;-84
2023/11/19 20:43:58;;;;;;;3.47;2.53;;;;;;;13.80;63.24;95067.44;6043824;23;20025;-85
2023/11/19 20:46:23;;;;;;;2.60;1.85;;;;;;;13.98;63.00;95074.69;6043311;23;20011;-84
2023/11/19 20:48:49;;;;;;;2.97;1.80;;;;;;;13.93;63.44;95080.53;6044306;23;20093;-86
2023/11/19 20:51:18;;;;;;;2.38;2.17;;;;;;;13.97;62.65;95062.63;6069743;23;20014;-85
2023/11/19 20:53:44;;;;;;;3.90;2.58;;;;;;;13.97;62.99;95073.06;6093694;23;20045;-85
2023/11/19 20:56:10;;;;;;;6.63;4.70;;;;;;;13.94;63.21;95079.53;6069788;23;20006;-84
2023/11/19 20:58:36;;;;;;;7.68;4.53;;;;;;;13.82;63.00;95068.03;6106279;23;20009;-85
2023/11/19 21:11:14;;;;;;;6.10;4.00;;;;;;;13.86;62.76;95091.00;6123422;23;20026;-85
2023/11/19 21:13:41;;;;;;;5.40;3.97;;;;;;;13.67;62.78;95083.94;6098207;23;20017;-85
2023/11/19 21:16:07;;;;;;;6.55;4.35;;;;;;;13.67;62.99;95084.75;6098283;23;20009;-85
2023/11/19 21:18:36;;;;;;;3.45;1.98;;;;;;;13.82;62.52;95088.97;6074372;23;20033;-85
2023/11/19 21:21:03;;;;;;;2.90;2.40;;;;;;;14.06;61.66;95093.59;6098781;23;20002;-85
2023/11/19 21:23:30;;;;;;;10.25;6.03;;;;;;;13.84;62.43;95097.41;6074720;23;20037;-85
2023/11/19 21:25:58;;;;;;;8.55;5.05;;;;;;;13.82;62.29;95099.41;6099280;23;20030;-85
2023/11/19 21:28:26;;;;;;;6.07;3.28;;;;;;;13.95;62.20;95091.56;6098990;23;20022;-85
2023/11/19 21:47:32;;;;;;;1.77;1.67;;;;;;;13.72;62.60;95085.94;6123747;23;20026;-85
2023/11/19 21:49:57;;;;;;;3.65;1.92;;;;;;;13.74;63.00;95099.63;6126750;23;20030;-85
2023/11/19 22:18:14;;;;;;;2.13;1.80;;;;;;;13.80;62.51;95088.34;6123101;23;20147;-85
